sensor_id;sensor_type;location;lat;lon;timestamp;P1;durP1;ratioP1;P2;durP2;ratioP2
49310;SDS011;35177;45.900;5.946;2023-03-01T00:01:47;23.77;;;15.90;;
49310;SDS011;35177;45.900;5.946;2023-03-01T00:04:13;22.33;;;14.73;;
49310;SDS011;35177;45.900;5.946;2023-03-01T00:06:38;22.27;;;15.18;;
49310;SDS011;35177;45.900;5.946;2023-03-01T00:09:04;27.88;;;16.17;;
49310;SDS011;35177;45.900;5.946;2023-03-01T00:11:30;23.92;;;15.15;;
49310;SDS011;35177;45.900;5.946;2023-03-01T00:13:58;23.40;;;14.60;;
49310;SDS011;35177;45.900;5.946;2023-03-01T00:16:30;24.88;;;15.77;;
49310;SDS011;35177;45.900;5.946;2023-03-01T00:18:58;25.58;;;15.93;;
49310;SDS011;35177;45.900;5.946;2023-03-01T00:21:24;25.40;;;16.33;;
49310;SDS011;35177;45.900;5.946;2023-03-01T00:23:51;23.45;;;15.65;;
49310;SDS011;35177;45.900;5.946;2023-03-01T00:26:17;28.15;;;16.88;;
49310;SDS011;35177;45.900;5.946;2023-03-01T00:28:44;28.05;;;15.48;;
49310;SDS011;35177;45.900;5.946;2023-03-01T00:31:12;24.58;;;15.50;;
49310;SDS011;35177;45.900;5.946;2023-03-01T00:33:41;23.70;;;15.68;;
49310;SDS011;35177;45.900;5.946;2023-03-01T00:36:08;22.52;;;15.63;;
49310;SDS011;35177;45.900;5.946;2023-03-01T00:38:35;23.95;;;16.08;;
49310;SDS011;35177;45.900;5.946;2023-03-01T00:41:05;23.25;;;15.60;;
49310;SDS011;35177;45.900;5.946;2023-03-01T00:43:32;22.95;;;14.82;;
49310;SDS011;35177;45.900;5.946;2023-03-01T00:46:02;23.60;;;15.60;;
49310;SDS011;35177;45.900;5.946;2023-03-01T00:48:32;32.35;;;16.77;;
49310;SDS011;35177;45.900;5.946;2023-03-01T00:51:04;28.10;;;16.42;;
49310;SDS011;35177;45.900;5.946;2023-03-01T00:53:30;26.27;;;15.95;;
49310;SDS011;35177;45.900;5.946;2023-03-01T00:55:56;25.70;;;16.15;;
49310;SDS011;35177;45.900;5.946;2023-03-01T00:58:22;26.10;;;16.33;;
49310;SDS011;35177;45.900;5.946;2023-03-01T01:00:48;25.73;;;16.33;;
49310;SDS011;35177;45.900;5.946;2023-03-01T01:03:13;25.65;;;16.27;;
49310;SDS011;35177;45.900;5.946;2023-03-01T01:05:39;24.83;;;15.68;;
49310;SDS011;35177;45.900;5.946;2023-03-01T01:08:04;23.77;;;15.82;;
49310;SDS011;35177;45.900;5.946;2023-03-01T01:10:30;24.35;;;15.48;;
49310;SDS011;35177;45.900;5.946;2023-03-01T01:12:58;25.23;;;16.05;;
49310;SDS011;35177;45.900;5.946;2023-03-01T01:15:23;25.48;;;16.63;;
49310;SDS011;35177;45.900;5.946;2023-03-01T01:17:49;23.67;;;16.27;;
49310;SDS011;35177;45.900;5.946;2023-03-01T01:20:14;24.60;;;16.45;;
49310;SDS011;35177;45.900;5.946;2023-03-01T01:22:40;23.40;;;14.95;;
49310;SDS011;35177;45.900;5.946;2023-03-01T01:25:05;32.20;;;16.65;;
49310;SDS011;35177;45.900;5.946;2023-03-01T01:27:31;22.92;;;15.23;;
49310;SDS011;35177;45.900;5.946;2023-03-01T01:29:56;22.02;;;15.32;;
49310;SDS011;35177;45.900;5.946;2023-03-01T01:32:22;28.55;;;17.48;;
49310;SDS011;35177;45.900;5.946;2023-03-01T01:34:47;25.60;;;17.00;;
49310;SDS011;35177;45.900;5.946;2023-03-01T01:37:13;26.33;;;16.85;;
49310;SDS011;35177;45.900;5.946;2023-03-01T01:39:38;24.50;;;16.13;;
49310;SDS011;35177;45.900;5.946;2023-03-01T01:42:04;26.73;;;16.35;;
49310;SDS011;35177;45.900;5.946;2023-03-01T01:44:29;25.55;;;16.40;;
49310;SDS011;35177;45.900;5.946;2023-03-01T01:54:46;25.27;;;16.15;;
49310;SDS011;35177;45.900;5.946;2023-03-01T01:57:19;31.00;;;16.60;;
49310;SDS011;35177;45.900;5.946;2023-03-01T02:02:20;24.55;;;15.65;;
49310;SDS011;35177;45.900;5.946;2023-03-01T02:04:46;23.90;;;16.02;;
49310;SDS011;35177;45.900;5.946;2023-03-01T02:07:19;27.33;;;16.42;;
49310;SDS011;35177;45.900;5.946;2023-03-01T02:09:48;25.77;;;17.30;;
49310;SDS011;35177;45.900;5.946;2023-03-01T02:12:16;25.23;;;16.30;;
49310;SDS011;35177;45.900;5.946;2023-03-01T02:14:45;25.48;;;17.15;;
49310;SDS011;35177;45.900;5.946;2023-03-01T02:17:11;27.05;;;16.50;;
49310;SDS011;35177;45.900;5.946;2023-03-01T02:27:50;25.13;;;16.27;;
49310;SDS011;35177;45.900;5.946;2023-03-01T02:30:36;26.65;;;15.95;;
49310;SDS011;35177;45.900;5.946;2023-03-01T02:33:02;25.67;;;16.52;;
49310;SDS011;35177;45.900;5.946;2023-03-01T02:35:30;26.65;;;16.25;;
49310;SDS011;35177;45.900;5.946;2023-03-01T02:37:59;27.48;;;17.20;;
49310;SDS011;35177;45.900;5.946;2023-03-01T02:40:27;27.98;;;18.65;;
49310;SDS011;35177;45.900;5.946;2023-03-01T02:42:57;28.15;;;17.85;;
49310;SDS011;35177;45.900;5.946;2023-03-01T02:45:24;27.10;;;17.67;;
49310;SDS011;35177;45.900;5.946;2023-03-01T02:47:53;26.23;;;17.08;;
49310;SDS011;35177;45.900;5.946;2023-03-01T02:55:40;30.05;;;18.10;;
49310;SDS011;35177;45.900;5.946;2023-03-01T02:58:05;26.98;;;16.40;;
49310;SDS011;35177;45.900;5.946;2023-03-01T03:00:36;27.90;;;18.17;;
49310;SDS011;35177;45.900;5.946;2023-03-01T03:03:05;27.85;;;17.98;;
49310;SDS011;35177;45.900;5.946;2023-03-01T03:05:32;26.70;;;17.90;;
49310;SDS011;35177;45.900;5.946;2023-03-01T03:08:01;25.52;;;17.13;;
49310;SDS011;35177;45.900;5.946;2023-03-01T03:10:29;28.08;;;17.20;;
49310;SDS011;35177;45.900;5.946;2023-03-01T03:12:59;28.80;;;17.80;;
49310;SDS011;35177;45.900;5.946;2023-03-01T03:15:29;29.50;;;18.13;;
49310;SDS011;35177;45.900;5.946;2023-03-01T03:17:56;26.27;;;17.88;;
49310;SDS011;35177;45.900;5.946;2023-03-01T03:20:25;28.60;;;18.48;;
49310;SDS011;35177;45.900;5.946;2023-03-01T03:22:52;32.53;;;18.63;;
49310;SDS011;35177;45.900;5.946;2023-03-01T03:25:20;29.27;;;17.92;;
49310;SDS011;35177;45.900;5.946;2023-03-01T03:27:47;25.33;;;16.65;;
49310;SDS011;35177;45.900;5.946;2023-03-01T03:30:17;29.90;;;19.00;;
49310;SDS011;35177;45.900;5.946;2023-03-01T03:32:45;31.65;;;19.23;;
49310;SDS011;35177;45.900;5.946;2023-03-01T03:35:19;28.13;;;18.80;;
49310;SDS011;35177;45.900;5.946;2023-03-01T03:37:46;31.40;;;18.88;;
49310;SDS011;35177;45.900;5.946;2023-03-01T03:40:27;28.55;;;18.92;;
49310;SDS011;35177;45.900;5.946;2023-03-01T03:43:01;31.52;;;19.35;;
49310;SDS011;35177;45.900;5.946;2023-03-01T03:45:27;29.65;;;18.98;;
49310;SDS011;35177;45.900;5.946;2023-03-01T03:47:53;29.42;;;19.20;;
49310;SDS011;35177;45.900;5.946;2023-03-01T03:50:19;29.05;;;18.70;;
49310;SDS011;35177;45.900;5.946;2023-03-01T03:52:44;29.92;;;18.48;;
49310;SDS011;35177;45.900;5.946;2023-03-01T03:55:10;29.77;;;18.02;;
49310;SDS011;35177;45.900;5.946;2023-03-01T03:57:40;29.40;;;18.38;;
49310;SDS011;35177;45.900;5.946;2023-03-01T04:00:07;27.90;;;18.48;;
49310;SDS011;35177;45.900;5.946;2023-03-01T04:02:40;30.00;;;20.30;;
49310;SDS011;35177;45.900;5.946;2023-03-01T04:05:06;28.88;;;18.85;;
49310;SDS011;35177;45.900;5.946;2023-03-01T04:07:33;29.15;;;18.13;;
49310;SDS011;35177;45.900;5.946;2023-03-01T04:09:59;29.08;;;18.90;;
49310;SDS011;35177;45.900;5.946;2023-03-01T04:12:25;27.63;;;17.52;;
49310;SDS011;35177;45.900;5.946;2023-03-01T04:14:50;30.38;;;18.80;;
49310;SDS011;35177;45.900;5.946;2023-03-01T04:17:16;29.08;;;19.13;;
49310;SDS011;35177;45.900;5.946;2023-03-01T04:19:41;29.48;;;19.10;;
49310;SDS011;35177;45.900;5.946;2023-03-01T04:22:09;26.98;;;17.95;;
49310;SDS011;35177;45.900;5.946;2023-03-01T04:24:36;28.00;;;18.92;;
49310;SDS011;35177;45.900;5.946;2023-03-01T04:27:01;27.80;;;18.02;;
49310;SDS011;35177;45.900;5.946;2023-03-01T04:29:27;26.55;;;17.38;;
49310;SDS011;35177;45.900;5.946;2023-03-01T04:31:53;30.77;;;19.30;;
49310;SDS011;35177;45.900;5.946;2023-03-01T04:34:19;28.88;;;17.98;;
49310;SDS011;35177;45.900;5.946;2023-03-01T04:36:44;34.60;;;20.38;;
49310;SDS011;35177;45.900;5.946;2023-03-01T04:39:10;30.80;;;18.73;;
49310;SDS011;35177;45.900;5.946;2023-03-01T04:41:39;29.35;;;17.80;;
49310;SDS011;35177;45.900;5.946;2023-03-01T04:44:05;33.00;;;18.40;;
49310;SDS011;35177;45.900;5.946;2023-03-01T04:46:31;30.52;;;19.17;;
49310;SDS011;35177;45.900;5.946;2023-03-01T04:48:57;30.52;;;18.38;;
49310;SDS011;35177;45.900;5.946;2023-03-01T04:51:22;27.35;;;16.67;;
49310;SDS011;35177;45.900;5.946;2023-03-01T04:53:48;32.85;;;19.63;;
49310;SDS011;35177;45.900;5.946;2023-03-01T04:56:14;32.28;;;20.65;;
49310;SDS011;35177;45.900;5.946;2023-03-01T04:58:40;30.80;;;19.60;;
49310;SDS011;35177;45.900;5.946;2023-03-01T05:01:10;32.33;;;19.27;;
49310;SDS011;35177;45.900;5.946;2023-03-01T05:03:40;27.10;;;17.63;;
49310;SDS011;35177;45.900;5.946;2023-03-01T05:06:08;30.58;;;18.73;;
49310;SDS011;35177;45.900;5.946;2023-03-01T05:08:33;33.80;;;20.05;;
49310;SDS011;35177;45.900;5.946;2023-03-01T05:11:02;28.90;;;18.60;;
49310;SDS011;35177;45.900;5.946;2023-03-01T05:13:27;33.75;;;20.65;;
49310;SDS011;35177;45.900;5.946;2023-03-01T05:18:24;28.27;;;18.13;;
49310;SDS011;35177;45.900;5.946;2023-03-01T05:20:53;30.88;;;19.70;;
49310;SDS011;35177;45.900;5.946;2023-03-01T05:23:41;29.83;;;18.60;;
49310;SDS011;35177;45.900;5.946;2023-03-01T05:26:07;29.63;;;18.00;;
49310;SDS011;35177;45.900;5.946;2023-03-01T05:28:33;26.92;;;18.27;;
49310;SDS011;35177;45.900;5.946;2023-03-01T05:30:59;28.30;;;17.70;;
49310;SDS011;35177;45.900;5.946;2023-03-01T05:33:25;31.08;;;19.30;;
49310;SDS011;35177;45.900;5.946;2023-03-01T05:35:51;33.38;;;20.48;;
49310;SDS011;35177;45.900;5.946;2023-03-01T05:38:18;30.92;;;19.08;;
49310;SDS011;35177;45.900;5.946;2023-03-01T05:40:46;35.83;;;20.95;;
49310;SDS011;35177;45.900;5.946;2023-03-01T05:43:13;31.58;;;20.35;;
49310;SDS011;35177;45.900;5.946;2023-03-01T05:45:40;30.70;;;19.48;;
49310;SDS011;35177;45.900;5.946;2023-03-01T05:48:07;31.65;;;20.15;;
49310;SDS011;35177;45.900;5.946;2023-03-01T05:50:34;35.70;;;19.02;;
49310;SDS011;35177;45.900;5.946;2023-03-01T05:53:19;32.72;;;19.05;;
49310;SDS011;35177;45.900;5.946;2023-03-01T05:55:48;33.42;;;20.48;;
49310;SDS011;35177;45.900;5.946;2023-03-01T05:58:15;27.92;;;18.00;;
49310;SDS011;35177;45.900;5.946;2023-03-01T06:00:43;31.35;;;18.50;;
49310;SDS011;35177;45.900;5.946;2023-03-01T06:03:10;32.08;;;18.20;;
49310;SDS011;35177;45.900;5.946;2023-03-01T06:05:38;31.05;;;18.27;;
49310;SDS011;35177;45.900;5.946;2023-03-01T06:08:04;31.40;;;20.58;;
49310;SDS011;35177;45.900;5.946;2023-03-01T06:10:30;32.97;;;19.48;;
49310;SDS011;35177;45.900;5.946;2023-03-01T06:12:56;31.20;;;18.45;;
49310;SDS011;35177;45.900;5.946;2023-03-01T06:15:22;29.23;;;16.83;;
49310;SDS011;35177;45.900;5.946;2023-03-01T06:17:48;32.92;;;19.48;;
49310;SDS011;35177;45.900;5.946;2023-03-01T06:20:15;31.33;;;18.33;;
49310;SDS011;35177;45.900;5.946;2023-03-01T06:22:43;30.08;;;19.85;;
49310;SDS011;35177;45.900;5.946;2023-03-01T06:25:09;30.95;;;18.35;;
49310;SDS011;35177;45.900;5.946;2023-03-01T06:27:37;32.80;;;19.20;;
49310;SDS011;35177;45.900;5.946;2023-03-01T06:30:04;30.67;;;18.63;;
49310;SDS011;35177;45.900;5.946;2023-03-01T06:32:30;31.83;;;18.73;;
49310;SDS011;35177;45.900;5.946;2023-03-01T06:34:56;33.92;;;19.85;;
49310;SDS011;35177;45.900;5.946;2023-03-01T06:37:23;36.95;;;19.75;;
49310;SDS011;35177;45.900;5.946;2023-03-01T06:39:50;30.92;;;19.75;;
49310;SDS011;35177;45.900;5.946;2023-03-01T06:42:15;32.53;;;19.23;;
49310;SDS011;35177;45.900;5.946;2023-03-01T06:44:41;29.92;;;18.17;;
49310;SDS011;35177;45.900;5.946;2023-03-01T06:47:07;31.35;;;19.05;;
49310;SDS011;35177;45.900;5.946;2023-03-01T06:49:32;35.53;;;19.88;;
49310;SDS011;35177;45.900;5.946;2023-03-01T06:51:58;30.02;;;18.50;;
49310;SDS011;35177;45.900;5.946;2023-03-01T06:54:23;35.25;;;19.52;;
49310;SDS011;35177;45.900;5.946;2023-03-01T06:56:49;32.50;;;19.08;;
49310;SDS011;35177;45.900;5.946;2023-03-01T06:59:15;35.75;;;20.25;;
49310;SDS011;35177;45.900;5.946;2023-03-01T07:01:43;29.20;;;18.23;;
49310;SDS011;35177;45.900;5.946;2023-03-01T07:04:11;30.52;;;20.00;;
49310;SDS011;35177;45.900;5.946;2023-03-01T07:06:38;32.15;;;17.80;;
49310;SDS011;35177;45.900;5.946;2023-03-01T07:09:03;29.80;;;17.88;;
49310;SDS011;35177;45.900;5.946;2023-03-01T07:11:30;30.98;;;19.30;;
49310;SDS011;35177;45.900;5.946;2023-03-01T07:13:59;30.55;;;18.15;;
49310;SDS011;35177;45.900;5.946;2023-03-01T07:16:34;32.35;;;20.45;;
49310;SDS011;35177;45.900;5.946;2023-03-01T07:19:02;31.92;;;19.35;;
49310;SDS011;35177;45.900;5.946;2023-03-01T07:21:27;30.30;;;18.70;;
49310;SDS011;35177;45.900;5.946;2023-03-01T07:23:53;29.10;;;18.27;;
49310;SDS011;35177;45.900;5.946;2023-03-01T07:26:18;32.80;;;18.35;;
49310;SDS011;35177;45.900;5.946;2023-03-01T07:28:44;31.75;;;19.17;;
49310;SDS011;35177;45.900;5.946;2023-03-01T07:31:09;31.25;;;19.63;;
49310;SDS011;35177;45.900;5.946;2023-03-01T07:33:35;30.58;;;19.17;;
49310;SDS011;35177;45.900;5.946;2023-03-01T07:36:01;29.08;;;18.02;;
49310;SDS011;35177;45.900;5.946;2023-03-01T07:38:28;31.58;;;18.67;;
49310;SDS011;35177;45.900;5.946;2023-03-01T07:40:57;34.67;;;20.65;;
49310;SDS011;35177;45.900;5.946;2023-03-01T07:43:30;27.92;;;17.75;;
49310;SDS011;35177;45.900;5.946;2023-03-01T07:46:01;33.47;;;18.95;;
49310;SDS011;35177;45.900;5.946;2023-03-01T07:48:28;29.77;;;17.92;;
49310;SDS011;35177;45.900;5.946;2023-03-01T07:50:54;31.88;;;19.52;;
49310;SDS011;35177;45.900;5.946;2023-03-01T07:53:19;32.22;;;18.92;;
49310;SDS011;35177;45.900;5.946;2023-03-01T07:55:44;31.65;;;19.77;;
49310;SDS011;35177;45.900;5.946;2023-03-01T07:58:10;33.05;;;18.20;;
49310;SDS011;35177;45.900;5.946;2023-03-01T08:00:35;34.97;;;20.13;;
49310;SDS011;35177;45.900;5.946;2023-03-01T08:03:01;28.75;;;18.30;;
49310;SDS011;35177;45.900;5.946;2023-03-01T08:05:27;32.00;;;18.70;;
49310;SDS011;35177;45.900;5.946;2023-03-01T08:07:54;33.30;;;18.70;;
49310;SDS011;35177;45.900;5.946;2023-03-01T08:10:19;32.78;;;17.85;;
49310;SDS011;35177;45.900;5.946;2023-03-01T08:12:45;28.95;;;18.38;;
49310;SDS011;35177;45.900;5.946;2023-03-01T08:15:11;46.55;;;18.17;;
49310;SDS011;35177;45.900;5.946;2023-03-01T08:17:36;36.20;;;20.42;;
49310;SDS011;35177;45.900;5.946;2023-03-01T08:20:02;30.65;;;19.00;;
49310;SDS011;35177;45.900;5.946;2023-03-01T08:22:31;33.28;;;19.33;;
49310;SDS011;35177;45.900;5.946;2023-03-01T08:24:56;33.20;;;19.10;;
49310;SDS011;35177;45.900;5.946;2023-03-01T08:27:22;33.92;;;19.42;;
49310;SDS011;35177;45.900;5.946;2023-03-01T08:29:47;30.20;;;18.30;;
49310;SDS011;35177;45.900;5.946;2023-03-01T08:32:13;33.20;;;19.23;;
49310;SDS011;35177;45.900;5.946;2023-03-01T08:34:38;29.05;;;17.38;;
49310;SDS011;35177;45.900;5.946;2023-03-01T08:37:04;29.92;;;18.90;;
49310;SDS011;35177;45.900;5.946;2023-03-01T08:39:29;30.27;;;18.55;;
49310;SDS011;35177;45.900;5.946;2023-03-01T08:41:55;29.27;;;18.20;;
49310;SDS011;35177;45.900;5.946;2023-03-01T08:44:21;30.92;;;19.27;;
49310;SDS011;35177;45.900;5.946;2023-03-01T08:46:47;33.25;;;17.73;;
49310;SDS011;35177;45.900;5.946;2023-03-01T08:49:15;33.20;;;19.52;;
49310;SDS011;35177;45.900;5.946;2023-03-01T08:51:43;30.60;;;19.05;;
49310;SDS011;35177;45.900;5.946;2023-03-01T08:54:11;34.85;;;19.08;;
49310;SDS011;35177;45.900;5.946;2023-03-01T08:56:41;31.70;;;19.10;;
49310;SDS011;35177;45.900;5.946;2023-03-01T08:59:07;32.05;;;19.20;;
49310;SDS011;35177;45.900;5.946;2023-03-01T09:01:34;29.92;;;19.50;;
49310;SDS011;35177;45.900;5.946;2023-03-01T09:03:59;32.08;;;20.02;;
49310;SDS011;35177;45.900;5.946;2023-03-01T09:06:25;30.92;;;19.20;;
49310;SDS011;35177;45.900;5.946;2023-03-01T09:08:50;28.83;;;17.27;;
49310;SDS011;35177;45.900;5.946;2023-03-01T09:11:17;31.25;;;19.27;;
49310;SDS011;35177;45.900;5.946;2023-03-01T09:13:46;30.98;;;18.38;;
49310;SDS011;35177;45.900;5.946;2023-03-01T09:16:13;31.73;;;19.25;;
49310;SDS011;35177;45.900;5.946;2023-03-01T09:18:41;29.63;;;18.58;;
49310;SDS011;35177;45.900;5.946;2023-03-01T09:21:08;32.15;;;19.40;;
49310;SDS011;35177;45.900;5.946;2023-03-01T09:23:37;34.08;;;18.25;;
49310;SDS011;35177;45.900;5.946;2023-03-01T09:26:13;31.25;;;18.90;;
49310;SDS011;35177;45.900;5.946;2023-03-01T09:28:44;29.98;;;19.30;;
49310;SDS011;35177;45.900;5.946;2023-03-01T09:31:10;31.80;;;19.25;;
49310;SDS011;35177;45.900;5.946;2023-03-01T09:33:40;32.25;;;20.35;;
49310;SDS011;35177;45.900;5.946;2023-03-01T09:36:11;30.38;;;18.65;;
49310;SDS011;35177;45.900;5.946;2023-03-01T09:38:38;32.20;;;18.52;;
49310;SDS011;35177;45.900;5.946;2023-03-01T09:41:09;33.20;;;18.85;;
49310;SDS011;35177;45.900;5.946;2023-03-01T09:49:00;30.42;;;18.23;;
49310;SDS011;35177;45.900;5.946;2023-03-01T09:51:32;27.58;;;17.10;;
49310;SDS011;35177;45.900;5.946;2023-03-01T09:54:02;30.20;;;19.17;;
49310;SDS011;35177;45.900;5.946;2023-03-01T09:56:32;32.00;;;18.73;;
49310;SDS011;35177;45.900;5.946;2023-03-01T10:12:10;32.95;;;19.23;;
49310;SDS011;35177;45.900;5.946;2023-03-01T10:20:21;36.22;;;18.33;;
49310;SDS011;35177;45.900;5.946;2023-03-01T10:22:51;36.85;;;19.13;;
49310;SDS011;35177;45.900;5.946;2023-03-01T10:30:41;29.95;;;17.77;;
49310;SDS011;35177;45.900;5.946;2023-03-01T10:33:22;31.17;;;18.05;;
49310;SDS011;35177;45.900;5.946;2023-03-01T10:35:50;33.33;;;20.15;;
49310;SDS011;35177;45.900;5.946;2023-03-01T10:38:17;30.23;;;18.67;;
49310;SDS011;35177;45.900;5.946;2023-03-01T10:43:44;30.80;;;18.63;;
49310;SDS011;35177;45.900;5.946;2023-03-01T10:46:34;29.05;;;18.58;;
49310;SDS011;35177;45.900;5.946;2023-03-01T10:51:43;31.83;;;18.90;;
49310;SDS011;35177;45.900;5.946;2023-03-01T10:54:29;27.40;;;17.15;;
49310;SDS011;35177;45.900;5.946;2023-03-01T10:56:59;31.25;;;18.65;;
49310;SDS011;35177;45.900;5.946;2023-03-01T10:59:30;30.33;;;18.40;;
49310;SDS011;35177;45.900;5.946;2023-03-01T11:04:27;28.75;;;18.30;;
49310;SDS011;35177;45.900;5.946;2023-03-01T11:06:59;33.85;;;18.15;;
49310;SDS011;35177;45.900;5.946;2023-03-01T11:09:26;33.38;;;18.08;;
49310;SDS011;35177;45.900;5.946;2023-03-01T11:12:02;31.83;;;19.10;;
49310;SDS011;35177;45.900;5.946;2023-03-01T11:14:33;37.70;;;20.30;;
49310;SDS011;35177;45.900;5.946;2023-03-01T11:17:10;31.83;;;18.50;;
49310;SDS011;35177;45.900;5.946;2023-03-01T11:19:37;36.38;;;19.65;;
49310;SDS011;35177;45.900;5.946;2023-03-01T11:24:49;32.50;;;18.30;;
49310;SDS011;35177;45.900;5.946;2023-03-01T11:27:20;29.60;;;19.13;;
49310;SDS011;35177;45.900;5.946;2023-03-01T11:29:54;33.95;;;18.17;;
49310;SDS011;35177;45.900;5.946;2023-03-01T11:32:26;29.70;;;18.35;;
49310;SDS011;35177;45.900;5.946;2023-03-01T11:34:57;27.10;;;16.75;;
49310;SDS011;35177;45.900;5.946;2023-03-01T11:45:18;27.85;;;17.27;;
49310;SDS011;35177;45.900;5.946;2023-03-01T11:50:47;32.88;;;19.83;;
49310;SDS011;35177;45.900;5.946;2023-03-01T11:53:34;29.55;;;17.80;;
49310;SDS011;35177;45.900;5.946;2023-03-01T12:04:35;30.02;;;17.05;;
49310;SDS011;35177;45.900;5.946;2023-03-01T12:07:36;27.70;;;17.00;;
49310;SDS011;35177;45.900;5.946;2023-03-01T12:10:22;27.52;;;16.75;;
49310;SDS011;35177;45.900;5.946;2023-03-01T12:21:01;30.85;;;18.92;;
49310;SDS011;35177;45.900;5.946;2023-03-01T12:41:17;28.23;;;18.05;;
49310;SDS011;35177;45.900;5.946;2023-03-01T12:49:33;29.88;;;17.85;;
49310;SDS011;35177;45.900;5.946;2023-03-01T12:52:13;28.05;;;18.00;;
49310;SDS011;35177;45.900;5.946;2023-03-01T12:54:44;29.52;;;17.75;;
49310;SDS011;35177;45.900;5.946;2023-03-01T12:57:18;27.15;;;16.42;;
49310;SDS011;35177;45.900;5.946;2023-03-01T13:00:00;29.02;;;16.25;;
49310;SDS011;35177;45.900;5.946;2023-03-01T13:02:53;26.73;;;17.25;;
49310;SDS011;35177;45.900;5.946;2023-03-01T13:06:15;29.15;;;16.38;;
49310;SDS011;35177;45.900;5.946;2023-03-01T13:11:25;27.75;;;17.17;;
49310;SDS011;35177;45.900;5.946;2023-03-01T13:13:51;28.10;;;17.10;;
49310;SDS011;35177;45.900;5.946;2023-03-01T13:19:18;28.08;;;17.58;;
49310;SDS011;35177;45.900;5.946;2023-03-01T13:21:53;27.02;;;16.35;;
49310;SDS011;35177;45.900;5.946;2023-03-01T13:29:46;28.38;;;17.25;;
49310;SDS011;35177;45.900;5.946;2023-03-01T13:32:26;27.25;;;16.67;;
49310;SDS011;35177;45.900;5.946;2023-03-01T13:35:03;30.80;;;16.98;;
49310;SDS011;35177;45.900;5.946;2023-03-01T13:37:37;27.92;;;16.00;;
49310;SDS011;35177;45.900;5.946;2023-03-01T13:40:05;24.63;;;15.25;;
49310;SDS011;35177;45.900;5.946;2023-03-01T13:42:48;33.20;;;17.50;;
49310;SDS011;35177;45.900;5.946;2023-03-01T13:47:57;31.98;;;17.33;;
49310;SDS011;35177;45.900;5.946;2023-03-01T13:50:25;27.15;;;16.52;;
49310;SDS011;35177;45.900;5.946;2023-03-01T13:52:55;29.38;;;17.85;;
49310;SDS011;35177;45.900;5.946;2023-03-01T13:58:44;27.98;;;16.63;;
49310;SDS011;35177;45.900;5.946;2023-03-01T14:01:26;28.88;;;16.67;;
49310;SDS011;35177;45.900;5.946;2023-03-01T14:03:56;28.33;;;15.85;;
49310;SDS011;35177;45.900;5.946;2023-03-01T14:06:26;28.20;;;16.17;;
49310;SDS011;35177;45.900;5.946;2023-03-01T14:19:57;28.30;;;16.75;;
49310;SDS011;35177;45.900;5.946;2023-03-01T14:22:30;26.40;;;17.10;;
49310;SDS011;35177;45.900;5.946;2023-03-01T14:24:59;30.48;;;16.45;;
49310;SDS011;35177;45.900;5.946;2023-03-01T14:27:33;24.02;;;14.77;;
49310;SDS011;35177;45.900;5.946;2023-03-01T14:30:11;27.40;;;16.35;;
49310;SDS011;35177;45.900;5.946;2023-03-01T14:32:40;29.05;;;17.50;;
49310;SDS011;35177;45.900;5.946;2023-03-01T14:35:25;28.77;;;17.27;;
49310;SDS011;35177;45.900;5.946;2023-03-01T14:37:55;31.25;;;17.80;;
49310;SDS011;35177;45.900;5.946;2023-03-01T14:40:22;27.15;;;17.98;;
49310;SDS011;35177;45.900;5.946;2023-03-01T14:42:50;28.77;;;17.50;;
49310;SDS011;35177;45.900;5.946;2023-03-01T14:45:17;27.35;;;16.92;;
49310;SDS011;35177;45.900;5.946;2023-03-01T14:47:43;25.65;;;16.30;;
49310;SDS011;35177;45.900;5.946;2023-03-01T14:52:48;27.73;;;17.58;;
49310;SDS011;35177;45.900;5.946;2023-03-01T14:55:18;31.55;;;18.70;;
49310;SDS011;35177;45.900;5.946;2023-03-01T14:57:49;28.75;;;16.48;;
49310;SDS011;35177;45.900;5.946;2023-03-01T15:00:23;29.50;;;17.13;;
49310;SDS011;35177;45.900;5.946;2023-03-01T15:02:51;26.30;;;15.30;;
49310;SDS011;35177;45.900;5.946;2023-03-01T15:05:21;29.35;;;17.33;;
49310;SDS011;35177;45.900;5.946;2023-03-01T15:07:51;26.85;;;16.35;;
49310;SDS011;35177;45.900;5.946;2023-03-01T15:10:19;27.15;;;15.73;;
49310;SDS011;35177;45.900;5.946;2023-03-01T15:12:50;29.50;;;17.55;;
49310;SDS011;35177;45.900;5.946;2023-03-01T15:15:34;25.48;;;15.90;;
49310;SDS011;35177;45.900;5.946;2023-03-01T15:18:03;28.77;;;15.97;;
49310;SDS011;35177;45.900;5.946;2023-03-01T15:20:36;28.55;;;17.50;;
49310;SDS011;35177;45.900;5.946;2023-03-01T15:23:02;30.50;;;18.05;;
49310;SDS011;35177;45.900;5.946;2023-03-01T15:25:29;29.88;;;16.45;;
49310;SDS011;35177;45.900;5.946;2023-03-01T15:27:56;27.80;;;16.52;;
49310;SDS011;35177;45.900;5.946;2023-03-01T15:30:29;26.25;;;16.58;;
49310;SDS011;35177;45.900;5.946;2023-03-01T15:35:53;28.02;;;16.90;;
49310;SDS011;35177;45.900;5.946;2023-03-01T15:38:27;28.83;;;17.50;;
49310;SDS011;35177;45.900;5.946;2023-03-01T15:41:02;29.20;;;16.52;;
49310;SDS011;35177;45.900;5.946;2023-03-01T15:43:37;29.63;;;17.48;;
49310;SDS011;35177;45.900;5.946;2023-03-01T15:46:16;30.80;;;19.00;;
49310;SDS011;35177;45.900;5.946;2023-03-01T15:48:48;30.73;;;17.98;;
49310;SDS011;35177;45.900;5.946;2023-03-01T15:51:17;27.92;;;16.33;;
49310;SDS011;35177;45.900;5.946;2023-03-01T15:53:49;29.05;;;17.17;;
49310;SDS011;35177;45.900;5.946;2023-03-01T15:56:17;31.92;;;16.80;;
49310;SDS011;35177;45.900;5.946;2023-03-01T15:58:43;33.78;;;17.15;;
49310;SDS011;35177;45.900;5.946;2023-03-01T16:01:10;29.35;;;17.80;;
49310;SDS011;35177;45.900;5.946;2023-03-01T16:03:39;30.75;;;18.60;;
49310;SDS011;35177;45.900;5.946;2023-03-01T16:06:05;28.15;;;17.60;;
49310;SDS011;35177;45.900;5.946;2023-03-01T16:08:31;29.80;;;17.77;;
49310;SDS011;35177;45.900;5.946;2023-03-01T16:10:56;28.58;;;16.02;;
49310;SDS011;35177;45.900;5.946;2023-03-01T16:13:22;31.63;;;16.65;;
49310;SDS011;35177;45.900;5.946;2023-03-01T16:15:48;30.38;;;17.92;;
49310;SDS011;35177;45.900;5.946;2023-03-01T16:18:14;30.08;;;17.23;;
49310;SDS011;35177;45.900;5.946;2023-03-01T16:20:39;29.42;;;17.77;;
49310;SDS011;35177;45.900;5.946;2023-03-01T16:23:07;28.55;;;16.83;;
49310;SDS011;35177;45.900;5.946;2023-03-01T16:25:33;31.20;;;18.58;;
49310;SDS011;35177;45.900;5.946;2023-03-01T16:28:00;33.13;;;17.55;;
49310;SDS011;35177;45.900;5.946;2023-03-01T16:30:29;31.33;;;17.63;;
49310;SDS011;35177;45.900;5.946;2023-03-01T16:32:55;32.45;;;17.05;;
49310;SDS011;35177;45.900;5.946;2023-03-01T16:35:21;29.48;;;16.60;;
49310;SDS011;35177;45.900;5.946;2023-03-01T16:37:48;30.38;;;16.83;;
49310;SDS011;35177;45.900;5.946;2023-03-01T16:40:18;29.30;;;16.67;;
49310;SDS011;35177;45.900;5.946;2023-03-01T16:42:54;32.30;;;18.52;;
49310;SDS011;35177;45.900;5.946;2023-03-01T16:45:24;32.80;;;17.92;;
49310;SDS011;35177;45.900;5.946;2023-03-01T16:47:51;30.60;;;17.77;;
49310;SDS011;35177;45.900;5.946;2023-03-01T16:50:17;29.60;;;17.42;;
49310;SDS011;35177;45.900;5.946;2023-03-01T16:52:42;35.00;;;18.88;;
49310;SDS011;35177;45.900;5.946;2023-03-01T16:55:08;30.38;;;17.40;;
49310;SDS011;35177;45.900;5.946;2023-03-01T16:57:34;33.50;;;19.92;;
49310;SDS011;35177;45.900;5.946;2023-03-01T17:00:01;33.50;;;19.02;;
49310;SDS011;35177;45.900;5.946;2023-03-01T17:02:29;36.58;;;19.45;;